Apple River, IL

3:51 PM CDT on August 30, 2016 (GMT -0500)
Apple River | | Change Station

Elev 1106 ft 42.49 °N, 90.14 °W | Updated 3 minutes ago

Scattered Clouds
Scattered Clouds
76.3 °F
Feels Like 77 °F
N
7.3
Wind Variable Wind from ESE

Today
High -- | Low -- °F
--% Chance of Precip.
Yesterday
High -- | Low -- °F
Precip. -- in
Pressure 30.09 in
Visibility 10.0 miles
Clouds Scattered Clouds 2700 ft
Scattered Clouds 3400 ft
Heat Index 77 °F
Dew Point 71 °F
Humidity 85%
Rainfall 0.16 in
Snow Depth Not available.
6:23 AM 7:37 PM
Waning Crescent, 2% visible
METAR KPVB 302035Z AUTO 27008KT 10SM SCT027 SCT034 28/23 A3009 RMK AO1 T02750232
Pressure 30.09 in
Visibility 10.0 miles
Clouds Scattered Clouds 2700 ft
Scattered Clouds 3400 ft
Heat Index 77 °F
Dew Point 71 °F
Humidity 85%
Rainfall 0.16 in
Snow Depth Not available.
6:23 AM 7:37 PM
Waning Crescent, 2% visible
METAR KPVB 302035Z AUTO 27008KT 10SM SCT027 SCT034 28/23 A3009 RMK AO1 T02750232

10-Day Weather Forecast

Almanac

Astronomy

Aug. 30, 2016 Rise Set
Actual Time
Civil Twilight
Nautical Twilight
Astronomical Twilight
Moon
Length of Visible Light
Length of Day
Tomorrow will be .
, % of the Moon is Illuminated

Today's Extremes

State Highs State Lows

Community

WunderPhotos

Upload Photos

1,935,889 photos uploaded!

WunderBlog® & News

Nearby

Air Quality

  Air Quality AQ Index Pollutant
Not available.

Snow Depth

Station Depth Elevation

Earthquake Activity

City Distance Mag. Time & Date
Minimum magnitude displayed is 2.5.

Coastal Water Temperatures

Place Temperature

Stations

Nearby Weather Stations

Station Location Temp. Windchill Dew Point Humidity Wind Precip. Elev Updated Type
                   

Watches & Warnings

There are currently no watches in effect.